Terminal Aerodrome Forecast
Issued by NWS Cleveland, OH

Home | Current Version | Previous Version | Graphics & Text | Print | Product List | Glossary Off
Versions: 1 2 3 4 5 6 7 8 9 10 11 12 13 14 15 16 17

489
FTUS41 KCLE 091607 AAA
TAFMFD
TAF AMD
KMFD 091607Z 0916/1012 26014KT 2SM -SHSN BKN012 OVC025
      TEMPO 0916/0920 6SM -SHSN SCT012
     FM100100 26008KT P6SM -SN BKN022 OVC035=

USA.gov is the U.S. government's official web portal to all federal, state and local government web resources and services.